sensor_id;sensor_type;location;lat;lon;timestamp;temperature;humidity
10042;DHT22;5061;49.068;12.058;2023-07-13T00:00:08;20.10;99.90
10042;DHT22;5061;49.068;12.058;2023-07-13T00:03:32;20.10;99.90
10042;DHT22;5061;49.068;12.058;2023-07-13T00:06:55;20.00;99.90
10042;DHT22;5061;49.068;12.058;2023-07-13T00:10:16;20.00;99.90
10042;DHT22;5061;49.068;12.058;2023-07-13T00:13:37;20.00;99.90
10042;DHT22;5061;49.068;12.058;2023-07-13T00:16:59;19.90;99.90
10042;DHT22;5061;49.068;12.058;2023-07-13T00:20:22;19.80;99.90
10042;DHT22;5061;49.068;12.058;2023-07-13T00:23:43;19.80;99.90
10042;DHT22;5061;49.068;12.058;2023-07-13T00:27:03;19.80;99.90
10042;DHT22;5061;49.068;12.058;2023-07-13T00:30:24;19.70;99.90
10042;DHT22;5061;49.068;12.058;2023-07-13T00:33:46;19.70;99.90
10042;DHT22;5061;49.068;12.058;2023-07-13T00:37:07;19.70;99.90
10042;DHT22;5061;49.068;12.058;2023-07-13T00:40:27;19.70;99.90
10042;DHT22;5061;49.068;12.058;2023-07-13T00:43:48;19.70;99.90
10042;DHT22;5061;49.068;12.058;2023-07-13T00:47:09;19.60;99.90
10042;DHT22;5061;49.068;12.058;2023-07-13T00:50:29;19.60;99.90
10042;DHT22;5061;49.068;12.058;2023-07-13T00:53:51;19.60;99.90
10042;DHT22;5061;49.068;12.058;2023-07-13T00:57:16;19.70;99.90
10042;DHT22;5061;49.068;12.058;2023-07-13T01:00:38;19.70;99.90
10042;DHT22;5061;49.068;12.058;2023-07-13T01:04:00;19.70;99.90
10042;DHT22;5061;49.068;12.058;2023-07-13T01:07:20;19.70;99.90
10042;DHT22;5061;49.068;12.058;2023-07-13T01:10:50;19.70;99.90
10042;DHT22;5061;49.068;12.058;2023-07-13T01:14:11;19.70;99.90
10042;DHT22;5061;49.068;12.058;2023-07-13T01:17:33;19.70;99.90
10042;DHT22;5061;49.068;12.058;2023-07-13T01:20:58;19.70;99.90
10042;DHT22;5061;49.068;12.058;2023-07-13T01:24:18;19.80;99.90
10042;DHT22;5061;49.068;12.058;2023-07-13T01:27:39;19.80;99.90
10042;DHT22;5061;49.068;12.058;2023-07-13T01:31:01;19.80;99.90
10042;DHT22;5061;49.068;12.058;2023-07-13T01:34:22;19.80;99.90
10042;DHT22;5061;49.068;12.058;2023-07-13T01:37:43;19.90;99.90
10042;DHT22;5061;49.068;12.058;2023-07-13T01:41:05;19.90;99.90
10042;DHT22;5061;49.068;12.058;2023-07-13T01:44:25;19.90;99.90
10042;DHT22;5061;49.068;12.058;2023-07-13T01:47:46;19.90;99.90
10042;DHT22;5061;49.068;12.058;2023-07-13T01:51:07;19.90;99.90
10042;DHT22;5061;49.068;12.058;2023-07-13T01:54:27;19.90;99.90
10042;DHT22;5061;49.068;12.058;2023-07-13T01:57:48;19.90;99.90
10042;DHT22;5061;49.068;12.058;2023-07-13T02:01:09;19.80;99.90
10042;DHT22;5061;49.068;12.058;2023-07-13T02:04:29;19.80;99.90
10042;DHT22;5061;49.068;12.058;2023-07-13T02:07:50;19.80;99.90
10042;DHT22;5061;49.068;12.058;2023-07-13T02:11:11;19.80;99.90
10042;DHT22;5061;49.068;12.058;2023-07-13T02:14:32;19.80;99.90
10042;DHT22;5061;49.068;12.058;2023-07-13T02:17:52;19.80;99.90
10042;DHT22;5061;49.068;12.058;2023-07-13T02:21:13;19.70;99.90
10042;DHT22;5061;49.068;12.058;2023-07-13T02:24:34;19.70;99.90
10042;DHT22;5061;49.068;12.058;2023-07-13T02:27:54;19.70;99.90
10042;DHT22;5061;49.068;12.058;2023-07-13T02:31:16;19.60;99.90
10042;DHT22;5061;49.068;12.058;2023-07-13T02:34:36;19.60;99.90
10042;DHT22;5061;49.068;12.058;2023-07-13T02:37:57;19.60;99.90
10042;DHT22;5061;49.068;12.058;2023-07-13T02:41:18;19.50;99.90
10042;DHT22;5061;49.068;12.058;2023-07-13T02:44:38;19.50;99.90
10042;DHT22;5061;49.068;12.058;2023-07-13T02:47:59;19.50;99.90
10042;DHT22;5061;49.068;12.058;2023-07-13T02:51:20;19.50;99.90
10042;DHT22;5061;49.068;12.058;2023-07-13T02:54:40;19.40;99.90
10042;DHT22;5061;49.068;12.058;2023-07-13T02:58:01;19.40;99.90
10042;DHT22;5061;49.068;12.058;2023-07-13T03:01:22;19.30;99.90
10042;DHT22;5061;49.068;12.058;2023-07-13T03:04:43;19.30;99.90
10042;DHT22;5061;49.068;12.058;2023-07-13T03:08:03;19.30;99.90
10042;DHT22;5061;49.068;12.058;2023-07-13T03:11:24;19.20;99.90
10042;DHT22;5061;49.068;12.058;2023-07-13T03:14:45;19.20;99.90
10042;DHT22;5061;49.068;12.058;2023-07-13T03:18:05;19.20;99.90
10042;DHT22;5061;49.068;12.058;2023-07-13T03:21:26;19.20;99.90
10042;DHT22;5061;49.068;12.058;2023-07-13T03:24:46;19.20;99.90
10042;DHT22;5061;49.068;12.058;2023-07-13T03:28:07;19.20;99.90
10042;DHT22;5061;49.068;12.058;2023-07-13T03:31:32;19.10;99.90
10042;DHT22;5061;49.068;12.058;2023-07-13T03:34:52;19.10;99.90
10042;DHT22;5061;49.068;12.058;2023-07-13T03:38:13;19.10;99.90
10042;DHT22;5061;49.068;12.058;2023-07-13T03:41:34;19.10;99.90
10042;DHT22;5061;49.068;12.058;2023-07-13T03:44:54;19.00;99.90
10042;DHT22;5061;49.068;12.058;2023-07-13T03:48:15;19.00;99.90
10042;DHT22;5061;49.068;12.058;2023-07-13T03:51:36;19.00;99.90
10042;DHT22;5061;49.068;12.058;2023-07-13T03:54:56;19.00;99.90
10042;DHT22;5061;49.068;12.058;2023-07-13T03:58:28;18.90;99.90
10042;DHT22;5061;49.068;12.058;2023-07-13T04:01:49;18.90;99.90
10042;DHT22;5061;49.068;12.058;2023-07-13T04:05:10;18.90;99.90
10042;DHT22;5061;49.068;12.058;2023-07-13T04:08:33;18.90;99.90
10042;DHT22;5061;49.068;12.058;2023-07-13T04:11:54;18.90;99.90
10042;DHT22;5061;49.068;12.058;2023-07-13T04:15:14;18.90;99.90
10042;DHT22;5061;49.068;12.058;2023-07-13T04:18:35;18.90;99.90
10042;DHT22;5061;49.068;12.058;2023-07-13T04:21:55;18.90;99.90
10042;DHT22;5061;49.068;12.058;2023-07-13T04:25:16;18.90;99.90
10042;DHT22;5061;49.068;12.058;2023-07-13T04:28:37;18.90;99.90
10042;DHT22;5061;49.068;12.058;2023-07-13T04:31:58;18.90;99.90
10042;DHT22;5061;49.068;12.058;2023-07-13T04:35:19;18.80;99.90
10042;DHT22;5061;49.068;12.058;2023-07-13T04:38:44;18.80;99.90
10042;DHT22;5061;49.068;12.058;2023-07-13T04:42:07;18.80;99.90
10042;DHT22;5061;49.068;12.058;2023-07-13T04:45:28;18.90;99.90
10042;DHT22;5061;49.068;12.058;2023-07-13T04:48:49;18.90;99.90
10042;DHT22;5061;49.068;12.058;2023-07-13T04:52:11;18.90;99.90
10042;DHT22;5061;49.068;12.058;2023-07-13T04:55:32;18.90;99.90
10042;DHT22;5061;49.068;12.058;2023-07-13T04:58:53;18.90;99.90
10042;DHT22;5061;49.068;12.058;2023-07-13T05:02:13;18.90;99.90
10042;DHT22;5061;49.068;12.058;2023-07-13T05:05:34;18.90;99.90
10042;DHT22;5061;49.068;12.058;2023-07-13T05:12:24;19.00;99.90
10042;DHT22;5061;49.068;12.058;2023-07-13T05:15:47;19.00;99.90
10042;DHT22;5061;49.068;12.058;2023-07-13T05:19:08;19.00;99.90
10042;DHT22;5061;49.068;12.058;2023-07-13T05:22:29;18.90;99.90
10042;DHT22;5061;49.068;12.058;2023-07-13T05:25:49;18.90;99.90
10042;DHT22;5061;49.068;12.058;2023-07-13T05:29:10;18.90;99.90
10042;DHT22;5061;49.068;12.058;2023-07-13T05:32:31;18.90;99.90
10042;DHT22;5061;49.068;12.058;2023-07-13T05:35:51;18.90;99.90
10042;DHT22;5061;49.068;12.058;2023-07-13T05:39:12;18.90;99.90
10042;DHT22;5061;49.068;12.058;2023-07-13T05:42:33;19.00;99.90
10042;DHT22;5061;49.068;12.058;2023-07-13T05:45:55;19.00;99.90
10042;DHT22;5061;49.068;12.058;2023-07-13T05:49:16;19.10;99.90
10042;DHT22;5061;49.068;12.058;2023-07-13T05:52:36;19.00;99.90
10042;DHT22;5061;49.068;12.058;2023-07-13T05:55:57;19.10;99.90
10042;DHT22;5061;49.068;12.058;2023-07-13T05:59:18;19.00;99.90
10042;DHT22;5061;49.068;12.058;2023-07-13T06:02:39;19.10;99.90
10042;DHT22;5061;49.068;12.058;2023-07-13T06:05:59;19.10;99.90
10042;DHT22;5061;49.068;12.058;2023-07-13T06:09:20;19.10;99.90
10042;DHT22;5061;49.068;12.058;2023-07-13T06:12:41;19.10;99.90
10042;DHT22;5061;49.068;12.058;2023-07-13T06:16:02;19.10;99.90
10042;DHT22;5061;49.068;12.058;2023-07-13T06:19:24;19.20;99.90
10042;DHT22;5061;49.068;12.058;2023-07-13T06:22:45;19.20;99.90
10042;DHT22;5061;49.068;12.058;2023-07-13T06:26:06;19.20;99.90
10042;DHT22;5061;49.068;12.058;2023-07-13T06:29:27;19.20;99.90
10042;DHT22;5061;49.068;12.058;2023-07-13T06:32:47;19.30;99.90
10042;DHT22;5061;49.068;12.058;2023-07-13T06:36:08;19.30;99.90
10042;DHT22;5061;49.068;12.058;2023-07-13T06:39:29;19.30;99.90
10042;DHT22;5061;49.068;12.058;2023-07-13T06:42:50;19.30;99.90
10042;DHT22;5061;49.068;12.058;2023-07-13T06:46:11;19.30;99.90
10042;DHT22;5061;49.068;12.058;2023-07-13T06:49:31;19.30;99.90
10042;DHT22;5061;49.068;12.058;2023-07-13T06:52:52;19.30;99.90
10042;DHT22;5061;49.068;12.058;2023-07-13T06:56:13;19.30;99.90
10042;DHT22;5061;49.068;12.058;2023-07-13T06:59:34;19.30;99.90
10042;DHT22;5061;49.068;12.058;2023-07-13T07:02:55;19.30;99.90
10042;DHT22;5061;49.068;12.058;2023-07-13T07:06:18;19.40;99.90
10042;DHT22;5061;49.068;12.058;2023-07-13T07:09:39;19.40;99.90
10042;DHT22;5061;49.068;12.058;2023-07-13T07:12:59;19.40;99.90
10042;DHT22;5061;49.068;12.058;2023-07-13T07:16:21;19.50;99.90
10042;DHT22;5061;49.068;12.058;2023-07-13T07:19:42;19.60;99.90
10042;DHT22;5061;49.068;12.058;2023-07-13T07:23:02;19.60;99.90
10042;DHT22;5061;49.068;12.058;2023-07-13T07:26:23;19.70;99.90
10042;DHT22;5061;49.068;12.058;2023-07-13T07:29:44;19.80;99.90
10042;DHT22;5061;49.068;12.058;2023-07-13T07:33:04;19.90;99.90
10042;DHT22;5061;49.068;12.058;2023-07-13T07:36:25;20.00;99.90
10042;DHT22;5061;49.068;12.058;2023-07-13T07:39:45;20.10;99.90
10042;DHT22;5061;49.068;12.058;2023-07-13T07:43:11;20.20;99.90
10042;DHT22;5061;49.068;12.058;2023-07-13T07:46:32;20.30;99.90
10042;DHT22;5061;49.068;12.058;2023-07-13T07:49:52;20.30;99.90
10042;DHT22;5061;49.068;12.058;2023-07-13T07:53:14;20.40;99.90
10042;DHT22;5061;49.068;12.058;2023-07-13T07:56:34;20.40;99.90
10042;DHT22;5061;49.068;12.058;2023-07-13T07:59:55;20.40;99.90
10042;DHT22;5061;49.068;12.058;2023-07-13T08:03:16;20.40;99.90
10042;DHT22;5061;49.068;12.058;2023-07-13T08:06:36;20.40;99.90
10042;DHT22;5061;49.068;12.058;2023-07-13T08:09:57;20.50;99.90
10042;DHT22;5061;49.068;12.058;2023-07-13T08:13:18;20.50;99.90
10042;DHT22;5061;49.068;12.058;2023-07-13T08:16:38;20.50;99.90
10042;DHT22;5061;49.068;12.058;2023-07-13T08:19:59;20.50;99.90
10042;DHT22;5061;49.068;12.058;2023-07-13T08:23:20;20.60;99.90
10042;DHT22;5061;49.068;12.058;2023-07-13T08:26:41;20.60;99.90
10042;DHT22;5061;49.068;12.058;2023-07-13T08:30:02;20.60;99.90
10042;DHT22;5061;49.068;12.058;2023-07-13T08:33:23;20.70;99.90
10042;DHT22;5061;49.068;12.058;2023-07-13T08:36:44;20.70;99.90
10042;DHT22;5061;49.068;12.058;2023-07-13T08:40:07;20.80;99.90
10042;DHT22;5061;49.068;12.058;2023-07-13T08:43:34;20.80;99.90
10042;DHT22;5061;49.068;12.058;2023-07-13T08:46:56;21.00;99.90
10042;DHT22;5061;49.068;12.058;2023-07-13T08:50:20;21.10;99.90
10042;DHT22;5061;49.068;12.058;2023-07-13T08:53:47;21.10;99.90
10042;DHT22;5061;49.068;12.058;2023-07-13T08:57:24;21.20;99.90
10042;DHT22;5061;49.068;12.058;2023-07-13T09:01:02;21.20;99.90
10042;DHT22;5061;49.068;12.058;2023-07-13T09:04:37;21.30;99.90
10042;DHT22;5061;49.068;12.058;2023-07-13T09:11:46;21.40;99.90
10042;DHT22;5061;49.068;12.058;2023-07-13T09:15:24;21.50;99.90
10042;DHT22;5061;49.068;12.058;2023-07-13T09:18:51;21.60;99.90
10042;DHT22;5061;49.068;12.058;2023-07-13T09:22:18;21.70;99.90
10042;DHT22;5061;49.068;12.058;2023-07-13T09:25:40;21.70;99.90
10042;DHT22;5061;49.068;12.058;2023-07-13T09:29:29;21.60;99.90
10042;DHT22;5061;49.068;12.058;2023-07-13T09:32:52;21.50;99.90
10042;DHT22;5061;49.068;12.058;2023-07-13T09:36:23;21.40;99.90
10042;DHT22;5061;49.068;12.058;2023-07-13T09:39:44;21.40;99.90
10042;DHT22;5061;49.068;12.058;2023-07-13T09:43:10;21.50;99.90
10042;DHT22;5061;49.068;12.058;2023-07-13T09:46:31;21.50;99.90
10042;DHT22;5061;49.068;12.058;2023-07-13T09:50:00;21.60;93.30
10042;DHT22;5061;49.068;12.058;2023-07-13T09:53:21;21.70;93.70
10042;DHT22;5061;49.068;12.058;2023-07-13T09:56:43;21.80;99.90
10042;DHT22;5061;49.068;12.058;2023-07-13T10:00:18;22.00;99.90
10042;DHT22;5061;49.068;12.058;2023-07-13T10:03:40;22.10;99.90
10042;DHT22;5061;49.068;12.058;2023-07-13T10:07:13;22.30;99.90
10042;DHT22;5061;49.068;12.058;2023-07-13T10:10:33;22.40;99.90
10042;DHT22;5061;49.068;12.058;2023-07-13T10:14:01;22.50;99.90
10042;DHT22;5061;49.068;12.058;2023-07-13T10:17:29;22.60;99.90
10042;DHT22;5061;49.068;12.058;2023-07-13T10:21:00;22.70;99.90
10042;DHT22;5061;49.068;12.058;2023-07-13T10:24:32;22.80;99.90
10042;DHT22;5061;49.068;12.058;2023-07-13T10:27:58;22.80;99.90
10042;DHT22;5061;49.068;12.058;2023-07-13T10:31:21;22.90;99.90
10042;DHT22;5061;49.068;12.058;2023-07-13T10:34:45;23.00;99.90
10042;DHT22;5061;49.068;12.058;2023-07-13T10:38:18;23.10;99.90
10042;DHT22;5061;49.068;12.058;2023-07-13T10:41:42;23.10;99.90
10042;DHT22;5061;49.068;12.058;2023-07-13T10:45:15;23.00;99.90
10042;DHT22;5061;49.068;12.058;2023-07-13T10:48:37;22.90;99.90
10042;DHT22;5061;49.068;12.058;2023-07-13T10:51:59;22.80;99.90
10042;DHT22;5061;49.068;12.058;2023-07-13T10:56:32;22.80;99.90
10042;DHT22;5061;49.068;12.058;2023-07-13T10:59:27;22.80;99.90
10042;DHT22;5061;49.068;12.058;2023-07-13T11:02:59;22.80;99.90
10042;DHT22;5061;49.068;12.058;2023-07-13T11:09:43;22.90;99.90
10042;DHT22;5061;49.068;12.058;2023-07-13T11:16:57;23.00;99.90
10042;DHT22;5061;49.068;12.058;2023-07-13T11:20:24;23.10;99.90
10042;DHT22;5061;49.068;12.058;2023-07-13T11:24:01;23.40;99.90
10042;DHT22;5061;49.068;12.058;2023-07-13T11:34:23;23.80;99.90
10042;DHT22;5061;49.068;12.058;2023-07-13T11:37:46;23.80;99.90
10042;DHT22;5061;49.068;12.058;2023-07-13T11:41:16;24.00;99.90
10042;DHT22;5061;49.068;12.058;2023-07-13T11:44:49;24.30;99.90
10042;DHT22;5061;49.068;12.058;2023-07-13T11:48:21;24.40;99.90
10042;DHT22;5061;49.068;12.058;2023-07-13T11:51:43;24.40;99.90
10042;DHT22;5061;49.068;12.058;2023-07-13T11:55:18;24.50;99.90
10042;DHT22;5061;49.068;12.058;2023-07-13T11:58:39;24.70;99.90
10042;DHT22;5061;49.068;12.058;2023-07-13T12:02:00;24.80;99.90
10042;DHT22;5061;49.068;12.058;2023-07-13T12:05:21;24.80;99.90
10042;DHT22;5061;49.068;12.058;2023-07-13T12:08:41;24.90;99.90
10042;DHT22;5061;49.068;12.058;2023-07-13T12:12:02;25.00;99.90
10042;DHT22;5061;49.068;12.058;2023-07-13T12:15:28;24.90;99.90
10042;DHT22;5061;49.068;12.058;2023-07-13T12:18:53;24.90;99.90
10042;DHT22;5061;49.068;12.058;2023-07-13T12:22:16;24.90;76.90
10042;DHT22;5061;49.068;12.058;2023-07-13T12:25:38;25.00;75.90
10042;DHT22;5061;49.068;12.058;2023-07-13T12:29:00;25.00;74.40
10042;DHT22;5061;49.068;12.058;2023-07-13T12:32:24;25.10;74.10
10042;DHT22;5061;49.068;12.058;2023-07-13T12:35:47;25.20;72.50
10042;DHT22;5061;49.068;12.058;2023-07-13T12:39:18;25.10;73.60
10042;DHT22;5061;49.068;12.058;2023-07-13T12:42:40;25.20;73.10
10042;DHT22;5061;49.068;12.058;2023-07-13T12:46:04;25.40;71.60
10042;DHT22;5061;49.068;12.058;2023-07-13T12:49:29;25.50;70.40
10042;DHT22;5061;49.068;12.058;2023-07-13T12:52:54;25.50;68.50
10042;DHT22;5061;49.068;12.058;2023-07-13T12:56:23;25.50;69.00
10042;DHT22;5061;49.068;12.058;2023-07-13T12:59:44;25.60;69.80
10042;DHT22;5061;49.068;12.058;2023-07-13T13:06:36;25.90;69.50
10042;DHT22;5061;49.068;12.058;2023-07-13T13:09:57;26.10;68.90
10042;DHT22;5061;49.068;12.058;2023-07-13T13:13:18;26.20;68.50
10042;DHT22;5061;49.068;12.058;2023-07-13T13:16:46;26.30;67.20
10042;DHT22;5061;49.068;12.058;2023-07-13T13:20:17;26.30;67.00
10042;DHT22;5061;49.068;12.058;2023-07-13T13:23:38;26.20;65.20
10042;DHT22;5061;49.068;12.058;2023-07-13T13:26:58;26.10;65.40
10042;DHT22;5061;49.068;12.058;2023-07-13T13:30:19;26.20;66.20
10042;DHT22;5061;49.068;12.058;2023-07-13T13:33:41;26.30;64.70
10042;DHT22;5061;49.068;12.058;2023-07-13T13:37:22;26.50;65.10
10042;DHT22;5061;49.068;12.058;2023-07-13T13:40:44;26.50;63.40
10042;DHT22;5061;49.068;12.058;2023-07-13T13:44:09;26.50;61.40
10042;DHT22;5061;49.068;12.058;2023-07-13T13:47:31;26.20;59.10
10042;DHT22;5061;49.068;12.058;2023-07-13T13:50:53;25.90;59.70
10042;DHT22;5061;49.068;12.058;2023-07-13T13:54:15;25.90;59.70
10042;DHT22;5061;49.068;12.058;2023-07-13T13:57:36;25.90;59.60
10042;DHT22;5061;49.068;12.058;2023-07-13T14:00:57;25.70;60.90
10042;DHT22;5061;49.068;12.058;2023-07-13T14:04:20;25.60;60.90
10042;DHT22;5061;49.068;12.058;2023-07-13T14:07:41;25.60;60.50
10042;DHT22;5061;49.068;12.058;2023-07-13T14:11:01;25.60;60.00
10042;DHT22;5061;49.068;12.058;2023-07-13T14:14:23;25.70;60.10
10042;DHT22;5061;49.068;12.058;2023-07-13T14:17:44;25.60;59.50
10042;DHT22;5061;49.068;12.058;2023-07-13T14:21:12;25.50;58.70
10042;DHT22;5061;49.068;12.058;2023-07-13T14:24:33;25.50;59.40
10042;DHT22;5061;49.068;12.058;2023-07-13T14:27:58;25.50;59.70
10042;DHT22;5061;49.068;12.058;2023-07-13T14:31:28;25.40;58.50
10042;DHT22;5061;49.068;12.058;2023-07-13T14:34:51;25.30;58.90
10042;DHT22;5061;49.068;12.058;2023-07-13T14:38:15;25.40;58.20
10042;DHT22;5061;49.068;12.058;2023-07-13T14:41:37;25.50;58.30
10042;DHT22;5061;49.068;12.058;2023-07-13T14:44:58;25.50;57.70
10042;DHT22;5061;49.068;12.058;2023-07-13T14:48:23;25.70;58.30
10042;DHT22;5061;49.068;12.058;2023-07-13T14:51:44;25.80;58.80
10042;DHT22;5061;49.068;12.058;2023-07-13T14:55:10;26.00;56.80
10042;DHT22;5061;49.068;12.058;2023-07-13T14:58:31;25.70;57.10
10042;DHT22;5061;49.068;12.058;2023-07-13T15:01:52;25.50;57.40
10042;DHT22;5061;49.068;12.058;2023-07-13T15:05:18;25.40;56.70
10042;DHT22;5061;49.068;12.058;2023-07-13T15:08:40;25.50;57.90
10042;DHT22;5061;49.068;12.058;2023-07-13T15:12:03;25.70;58.10
10042;DHT22;5061;49.068;12.058;2023-07-13T15:15:28;25.80;57.30
10042;DHT22;5061;49.068;12.058;2023-07-13T15:18:51;25.70;56.30
10042;DHT22;5061;49.068;12.058;2023-07-13T15:22:12;25.60;56.00
10042;DHT22;5061;49.068;12.058;2023-07-13T15:25:33;25.60;57.00
10042;DHT22;5061;49.068;12.058;2023-07-13T15:28:54;25.60;57.00
10042;DHT22;5061;49.068;12.058;2023-07-13T15:32:15;25.70;56.90
10042;DHT22;5061;49.068;12.058;2023-07-13T15:35:35;25.70;56.00
10042;DHT22;5061;49.068;12.058;2023-07-13T15:38:56;25.70;56.20
10042;DHT22;5061;49.068;12.058;2023-07-13T15:42:22;25.70;56.60
10042;DHT22;5061;49.068;12.058;2023-07-13T15:45:43;25.70;56.40
10042;DHT22;5061;49.068;12.058;2023-07-13T15:49:09;25.60;56.00
10042;DHT22;5061;49.068;12.058;2023-07-13T15:52:30;25.70;55.90
10042;DHT22;5061;49.068;12.058;2023-07-13T15:55:52;25.70;55.50
10042;DHT22;5061;49.068;12.058;2023-07-13T15:59:14;25.70;55.20
10042;DHT22;5061;49.068;12.058;2023-07-13T16:02:35;25.60;54.70
10042;DHT22;5061;49.068;12.058;2023-07-13T16:05:55;25.50;54.60
10042;DHT22;5061;49.068;12.058;2023-07-13T16:09:19;25.30;54.20
10042;DHT22;5061;49.068;12.058;2023-07-13T16:12:40;25.30;54.60
10042;DHT22;5061;49.068;12.058;2023-07-13T16:16:01;25.20;55.00
10042;DHT22;5061;49.068;12.058;2023-07-13T16:19:22;25.10;54.90
10042;DHT22;5061;49.068;12.058;2023-07-13T16:22:51;24.90;54.90
10042;DHT22;5061;49.068;12.058;2023-07-13T16:29:45;24.70;54.80
10042;DHT22;5061;49.068;12.058;2023-07-13T16:33:06;24.70;55.10
10042;DHT22;5061;49.068;12.058;2023-07-13T16:36:29;24.80;55.50
10042;DHT22;5061;49.068;12.058;2023-07-13T16:40:09;24.80;55.40
10042;DHT22;5061;49.068;12.058;2023-07-13T16:43:41;24.80;55.40
10042;DHT22;5061;49.068;12.058;2023-07-13T16:47:05;24.80;54.80
10042;DHT22;5061;49.068;12.058;2023-07-13T16:50:33;24.70;54.70
10042;DHT22;5061;49.068;12.058;2023-07-13T16:53:54;24.60;54.90
10042;DHT22;5061;49.068;12.058;2023-07-13T16:57:18;24.60;55.20
10042;DHT22;5061;49.068;12.058;2023-07-13T17:00:39;24.50;55.50
10042;DHT22;5061;49.068;12.058;2023-07-13T17:04:08;24.50;55.20
10042;DHT22;5061;49.068;12.058;2023-07-13T17:07:30;24.40;55.40
10042;DHT22;5061;49.068;12.058;2023-07-13T17:10:53;24.30;55.30
10042;DHT22;5061;49.068;12.058;2023-07-13T17:14:15;24.30;55.10
10042;DHT22;5061;49.068;12.058;2023-07-13T17:17:39;24.20;55.60
10042;DHT22;5061;49.068;12.058;2023-07-13T17:21:09;24.20;55.20
10042;DHT22;5061;49.068;12.058;2023-07-13T17:24:33;24.20;54.70
10042;DHT22;5061;49.068;12.058;2023-07-13T17:27:54;24.10;54.30
10042;DHT22;5061;49.068;12.058;2023-07-13T17:31:19;24.10;54.80
10042;DHT22;5061;49.068;12.058;2023-07-13T17:34:45;24.10;55.50
10042;DHT22;5061;49.068;12.058;2023-07-13T17:38:06;24.00;55.90
10042;DHT22;5061;49.068;12.058;2023-07-13T17:41:26;23.90;56.30
10042;DHT22;5061;49.068;12.058;2023-07-13T17:44:47;23.90;56.60
10042;DHT22;5061;49.068;12.058;2023-07-13T17:48:09;23.80;56.70
10042;DHT22;5061;49.068;12.058;2023-07-13T17:51:32;23.80;56.90
10042;DHT22;5061;49.068;12.058;2023-07-13T17:54:52;23.70;57.00
10042;DHT22;5061;49.068;12.058;2023-07-13T17:58:14;23.70;57.10
10042;DHT22;5061;49.068;12.058;2023-07-13T18:01:35;23.60;57.20
10042;DHT22;5061;49.068;12.058;2023-07-13T18:05:00;23.50;57.20
10042;DHT22;5061;49.068;12.058;2023-07-13T18:08:30;23.50;57.50
10042;DHT22;5061;49.068;12.058;2023-07-13T18:11:53;23.40;57.70
10042;DHT22;5061;49.068;12.058;2023-07-13T18:15:14;23.40;58.40
10042;DHT22;5061;49.068;12.058;2023-07-13T18:18:34;23.30;58.00
10042;DHT22;5061;49.068;12.058;2023-07-13T18:21:55;23.30;58.50
10042;DHT22;5061;49.068;12.058;2023-07-13T18:25:23;23.20;58.60
10042;DHT22;5061;49.068;12.058;2023-07-13T18:28:47;23.20;58.60
10042;DHT22;5061;49.068;12.058;2023-07-13T18:32:16;23.10;58.70
10042;DHT22;5061;49.068;12.058;2023-07-13T18:35:42;23.00;58.80
10042;DHT22;5061;49.068;12.058;2023-07-13T18:39:02;22.90;58.80
10042;DHT22;5061;49.068;12.058;2023-07-13T18:42:26;22.90;59.00
10042;DHT22;5061;49.068;12.058;2023-07-13T18:46:00;22.80;59.10
10042;DHT22;5061;49.068;12.058;2023-07-13T18:49:21;22.70;59.30
10042;DHT22;5061;49.068;12.058;2023-07-13T18:52:41;22.60;59.50
10042;DHT22;5061;49.068;12.058;2023-07-13T18:56:02;22.60;59.90
10042;DHT22;5061;49.068;12.058;2023-07-13T18:59:23;22.50;60.50
10042;DHT22;5061;49.068;12.058;2023-07-13T19:02:44;22.40;61.10
10042;DHT22;5061;49.068;12.058;2023-07-13T19:06:05;22.30;61.40
10042;DHT22;5061;49.068;12.058;2023-07-13T19:09:25;22.20;61.90
10042;DHT22;5061;49.068;12.058;2023-07-13T19:12:50;22.10;62.10
10042;DHT22;5061;49.068;12.058;2023-07-13T19:16:13;22.00;62.40
10042;DHT22;5061;49.068;12.058;2023-07-13T19:19:34;21.90;62.60
10042;DHT22;5061;49.068;12.058;2023-07-13T19:23:05;21.80;63.00
10042;DHT22;5061;49.068;12.058;2023-07-13T19:26:30;21.70;63.60
10042;DHT22;5061;49.068;12.058;2023-07-13T19:29:51;21.60;63.60
10042;DHT22;5061;49.068;12.058;2023-07-13T19:33:15;21.60;63.70
10042;DHT22;5061;49.068;12.058;2023-07-13T19:36:37;21.50;63.80
10042;DHT22;5061;49.068;12.058;2023-07-13T19:39:58;21.40;64.30
10042;DHT22;5061;49.068;12.058;2023-07-13T19:43:19;21.30;64.60
10042;DHT22;5061;49.068;12.058;2023-07-13T19:46:40;21.30;65.20
10042;DHT22;5061;49.068;12.058;2023-07-13T19:50:01;21.20;65.20
10042;DHT22;5061;49.068;12.058;2023-07-13T19:53:21;21.10;65.20
10042;DHT22;5061;49.068;12.058;2023-07-13T19:56:43;21.10;65.40
10042;DHT22;5061;49.068;12.058;2023-07-13T20:00:24;21.00;65.40
10042;DHT22;5061;49.068;12.058;2023-07-13T20:03:45;21.00;65.70
10042;DHT22;5061;49.068;12.058;2023-07-13T20:07:15;20.90;65.80
10042;DHT22;5061;49.068;12.058;2023-07-13T20:10:36;20.90;66.00
10042;DHT22;5061;49.068;12.058;2023-07-13T20:13:57;20.80;66.00
10042;DHT22;5061;49.068;12.058;2023-07-13T20:17:38;20.80;66.30
10042;DHT22;5061;49.068;12.058;2023-07-13T20:21:03;20.70;66.40
10042;DHT22;5061;49.068;12.058;2023-07-13T20:24:23;20.70;66.60
10042;DHT22;5061;49.068;12.058;2023-07-13T20:27:44;20.60;66.70
10042;DHT22;5061;49.068;12.058;2023-07-13T20:31:08;20.60;66.90
10042;DHT22;5061;49.068;12.058;2023-07-13T20:34:37;20.50;66.90
10042;DHT22;5061;49.068;12.058;2023-07-13T20:37:59;20.50;67.20
10042;DHT22;5061;49.068;12.058;2023-07-13T20:41:20;20.40;67.20
10042;DHT22;5061;49.068;12.058;2023-07-13T20:44:41;20.40;67.40
10042;DHT22;5061;49.068;12.058;2023-07-13T20:48:37;20.40;67.70
10042;DHT22;5061;49.068;12.058;2023-07-13T20:51:59;20.30;67.90
10042;DHT22;5061;49.068;12.058;2023-07-13T20:55:22;20.30;68.10
10042;DHT22;5061;49.068;12.058;2023-07-13T20:58:45;20.20;68.10
10042;DHT22;5061;49.068;12.058;2023-07-13T21:05:42;20.20;68.60
10042;DHT22;5061;49.068;12.058;2023-07-13T21:09:14;20.10;68.80
10042;DHT22;5061;49.068;12.058;2023-07-13T21:12:36;20.10;68.90
10042;DHT22;5061;49.068;12.058;2023-07-13T21:15:57;20.10;69.20
10042;DHT22;5061;49.068;12.058;2023-07-13T21:19:17;20.10;69.40
10042;DHT22;5061;49.068;12.058;2023-07-13T21:22:38;20.00;69.50
10042;DHT22;5061;49.068;12.058;2023-07-13T21:26:00;20.00;69.60
10042;DHT22;5061;49.068;12.058;2023-07-13T21:29:21;20.00;69.80
10042;DHT22;5061;49.068;12.058;2023-07-13T21:32:43;20.00;70.00
10042;DHT22;5061;49.068;12.058;2023-07-13T21:36:05;20.00;70.30
10042;DHT22;5061;49.068;12.058;2023-07-13T21:39:26;20.00;70.60
10042;DHT22;5061;49.068;12.058;2023-07-13T21:42:47;20.00;71.00
10042;DHT22;5061;49.068;12.058;2023-07-13T21:46:11;19.90;71.40
10042;DHT22;5061;49.068;12.058;2023-07-13T21:49:33;19.90;71.80
10042;DHT22;5061;49.068;12.058;2023-07-13T21:52:53;19.90;72.10